Time;durP1;ratioP1;P1;durP2;ratioP2;P2;SDS_P1;SDS_P2;PMS_P1;PMS_P2;Temp;Humidity;BMP_temperature;BMP_pressure;BME280_temperature;BME280_humidity;BME280_pressure;Samples;Min_cycle;Max_cycle;Signal;HPM_P1;HPM_P2
2022/10/17 13:17:04;;;;;;;1.05;0.35;;;;;;;20.81;52.95;100441.78;5507004;23;20050;-88
2022/10/17 13:19:40;;;;;;;0.65;0.40;;;;;;;20.80;53.18;100429.31;4972560;28;20043;-87
2022/10/17 13:22:14;;;;;;;0.20;0.20;;;;;;;20.81;53.01;100437.16;4975875;28;21090;-88
2022/10/17 13:24:40;;;;;;;1.50;0.47;;;;;;;20.81;53.20;100436.38;4937821;28;20550;-87
2022/10/17 13:27:36;;;;;;;0.40;0.40;;;;;;;20.78;52.52;100432.28;4986519;28;20031;-87
2022/10/17 13:30:22;;;;;;;0.30;0.30;;;;;;;20.84;52.30;100440.47;4956045;28;20432;-87
2022/10/17 13:32:48;;;;;;;1.60;0.50;;;;;;;20.84;52.35;100440.47;4958024;28;20436;-87
2022/10/17 13:35:18;;;;;;;0.60;0.40;;;;;;;20.81;52.91;100445.31;4969729;28;20078;-88
2022/10/17 13:37:45;;;;;;;0.30;0.30;;;;;;;20.81;52.11;100439.06;4944378;28;20030;-88
2022/10/17 13:40:18;;;;;;;1.17;0.40;;;;;;;20.82;52.91;100460.56;4953399;28;20034;-88
2022/10/17 13:42:44;;;;;;;1.00;0.40;;;;;;;20.85;53.12;100463.84;4977159;28;20431;-87
2022/10/17 13:45:36;;;;;;;0.70;0.30;;;;;;;20.76;52.29;100452.59;4975531;28;20110;-87
2022/10/17 13:48:04;;;;;;;1.45;0.50;;;;;;;20.85;52.00;100458.41;4953516;28;20035;-87
2022/10/17 13:50:35;;;;;;;0.47;0.40;;;;;;;20.84;53.06;100465.72;4961563;28;20033;-87
2022/10/17 13:53:17;;;;;;;0.30;0.30;;;;;;;20.81;52.03;100464.34;4955302;28;20391;-87
2022/10/17 13:55:54;;;;;;;1.98;0.45;;;;;;;20.77;52.07;100465.94;4970509;28;20093;-87
2022/10/17 13:58:20;;;;;;;1.08;0.50;;;;;;;20.82;52.34;100460.56;4968787;28;20026;-87
2022/10/17 14:00:46;;;;;;;0.73;0.30;;;;;;;20.80;53.23;100456.47;4958024;28;20026;-87
2022/10/17 14:03:12;;;;;;;0.77;0.40;;;;;;;20.85;52.48;100469.25;4960847;28;20077;-87
2022/10/17 14:06:05;;;;;;;0.77;0.35;;;;;;;20.84;52.15;100462.22;4971748;28;20100;-87
2022/10/17 14:08:32;;;;;;;0.65;0.30;;;;;;;20.77;53.38;100455.06;4961454;28;20026;-87
2022/10/17 14:10:57;;;;;;;1.05;0.60;;;;;;;20.76;52.29;100450.69;4941079;28;20050;-87
2022/10/17 14:13:26;;;;;;;0.32;0.30;;;;;;;20.82;52.83;100457.03;4967082;28;20042;-87
2022/10/17 14:15:58;;;;;;;0.85;0.40;;;;;;;20.80;52.38;100457.28;4944226;28;20034;-87
2022/10/17 14:18:26;;;;;;;0.82;0.60;;;;;;;20.81;53.16;100458.91;4950625;28;20039;-87
2022/10/17 14:20:51;;;;;;;0.32;0.30;;;;;;;20.82;52.84;100471.41;4955250;28;20041;-87
2022/10/17 14:23:37;;;;;;;2.22;0.40;;;;;;;20.82;52.06;100476.84;4938981;28;20130;-87
2022/10/17 14:26:14;;;;;;;1.55;0.50;;;;;;;20.84;52.92;100482.03;4957469;28;20455;-87
2022/10/17 14:28:40;;;;;;;1.00;0.30;;;;;;;20.85;52.60;100488.28;4979715;28;20082;-87
2022/10/17 14:31:15;;;;;;;0.60;0.40;;;;;;;20.85;52.62;100483.66;4967811;28;20117;-87
2022/10/17 14:33:48;;;;;;;1.98;0.40;;;;;;;20.84;52.26;100483.94;4972613;28;20039;-88
2022/10/17 14:36:14;;;;;;;0.97;0.50;;;;;;;20.84;53.07;100489.38;4964858;28;20035;-87
2022/10/17 14:38:44;;;;;;;0.80;0.40;;;;;;;20.85;52.72;100496.44;4978125;28;20482;-87
2022/10/17 14:41:17;;;;;;;0.40;0.30;;;;;;;20.83;52.41;100493.97;4970784;28;20041;-87
2022/10/17 14:43:43;;;;;;;0.63;0.40;;;;;;;20.85;52.54;100499.16;4973718;28;20117;-87
2022/10/17 14:46:15;;;;;;;0.65;0.30;;;;;;;20.80;52.55;100495.31;4959578;28;20088;-87
2022/10/17 14:48:41;;;;;;;0.57;0.40;;;;;;;20.81;52.84;100496.94;4957847;28;20580;-87
2022/10/17 14:51:13;;;;;;;0.63;0.30;;;;;;;20.84;52.63;100503.75;4952063;28;20034;-87
2022/10/17 14:53:39;;;;;;;0.30;0.30;;;;;;;20.74;52.25;100490.88;4973311;28;20385;-87
2022/10/17 14:56:25;;;;;;;0.40;0.40;;;;;;;20.86;52.01;100503.50;4979516;28;20034;-87
2022/10/17 14:58:51;;;;;;;0.40;0.35;;;;;;;20.85;51.98;100507.28;4969012;28;20459;-87
2022/10/17 15:01:17;;;;;;;0.25;0.25;;;;;;;20.85;52.72;100515.44;4955813;28;20033;-87
2022/10/17 15:03:43;;;;;;;1.33;0.40;;;;;;;20.85;52.32;100524.41;4950142;28;20034;-87
2022/10/17 15:06:16;;;;;;;0.47;0.20;;;;;;;20.85;52.54;100520.88;4973750;28;20467;-87
2022/10/17 15:08:42;;;;;;;0.35;0.30;;;;;;;20.81;52.51;100518.66;4962389;28;20117;-88
2022/10/17 15:11:09;;;;;;;1.40;0.43;;;;;;;20.84;52.76;100533.66;4982024;28;20029;-87
2022/10/17 15:13:35;;;;;;;0.70;0.50;;;;;;;20.82;52.62;100525.75;4948577;28;20042;-87
2022/10/17 15:16:01;;;;;;;0.28;0.20;;;;;;;20.79;52.50;100526.25;4952259;28;20030;-87
2022/10/17 15:18:26;;;;;;;1.88;0.50;;;;;;;20.75;52.60;100519.69;4965778;28;20395;-87
2022/10/17 15:20:52;;;;;;;0.50;0.40;;;;;;;20.84;52.37;100541.78;4976050;28;20069;-87
2022/10/17 15:23:17;;;;;;;1.85;0.40;;;;;;;20.83;52.20;100542.84;4973402;28;20053;-88
2022/10/17 15:25:43;;;;;;;0.57;0.40;;;;;;;20.80;52.00;100538.75;4952439;28;20129;-88
2022/10/17 15:28:10;;;;;;;0.55;0.30;;;;;;;20.84;52.03;100554.56;4972716;28;20026;-87
2022/10/17 15:30:36;;;;;;;0.73;0.30;;;;;;;20.82;52.50;100542.03;4954416;28;20050;-87
2022/10/17 15:33:01;;;;;;;0.22;0.20;;;;;;;20.81;52.04;100556.69;4955303;28;20114;-87
2022/10/17 15:35:27;;;;;;;0.70;0.40;;;;;;;20.82;52.38;100566.47;4974001;28;20323;-87
2022/10/17 15:37:53;;;;;;;0.30;0.28;;;;;;;20.82;52.00;100569.19;4949253;28;20394;-87
2022/10/17 15:40:23;;;;;;;1.08;0.30;;;;;;;20.80;51.91;100565.91;4969074;28;20045;-87
2022/10/17 15:42:49;;;;;;;2.17;0.40;;;;;;;20.84;52.18;100576.28;4965929;28;20019;-87
2022/10/17 15:45:16;;;;;;;0.47;0.30;;;;;;;20.79;52.45;100577.03;4976820;28;20042;-87
2022/10/17 15:47:42;;;;;;;0.55;0.40;;;;;;;20.80;52.01;100582.22;4955778;28;20358;-87
2022/10/17 15:50:12;;;;;;;0.40;0.40;;;;;;;20.82;51.90;100584.69;4950823;28;20492;-87
2022/10/17 15:52:38;;;;;;;0.98;0.30;;;;;;;20.80;51.89;100590.38;4984050;28;20039;-87
2022/10/17 15:55:03;;;;;;;0.30;0.30;;;;;;;20.83;52.01;100586.31;4969222;28;20033;-87
2022/10/17 15:57:30;;;;;;;0.30;0.28;;;;;;;20.78;51.98;100578.94;4984725;28;20460;-87
2022/10/17 15:59:57;;;;;;;0.63;0.30;;;;;;;20.75;51.44;100563.13;4950912;28;20034;-87
2022/10/17 16:02:23;;;;;;;0.57;0.38;;;;;;;20.77;51.79;100568.31;4955252;28;20030;-87
2022/10/17 16:04:49;;;;;;;0.60;0.25;;;;;;;20.81;51.81;100578.41;4951014;28;20026;-88
2022/10/17 16:07:14;;;;;;;0.73;0.30;;;;;;;20.80;51.97;100575.97;4967090;28;20388;-87
2022/10/17 16:09:40;;;;;;;0.35;0.30;;;;;;;20.80;51.77;100582.22;4961131;28;20023;-88
2022/10/17 16:12:12;;;;;;;1.13;0.38;;;;;;;20.78;51.50;100584.38;4966547;28;20553;-87
2022/10/17 16:14:38;;;;;;;0.28;0.20;;;;;;;20.79;51.40;100586.00;4935702;28;20483;-87
2022/10/17 16:17:04;;;;;;;0.75;0.35;;;;;;;20.79;52.16;100591.44;4975027;28;20036;-88
2022/10/17 16:19:29;;;;;;;0.47;0.38;;;;;;;20.78;51.95;100595.22;4964165;28;20058;-87
2022/10/17 16:22:00;;;;;;;0.73;0.25;;;;;;;20.80;51.78;100593.09;4950883;28;20034;-88
2022/10/17 16:24:25;;;;;;;0.50;0.30;;;;;;;20.75;51.36;100595.72;4968117;28;20050;-87
2022/10/17 16:26:51;;;;;;;1.17;0.43;;;;;;;20.78;51.39;100602.53;4974338;28;20491;-87
2022/10/17 16:29:17;;;;;;;0.30;0.30;;;;;;;20.79;51.83;100601.47;4999697;28;20014;-87
2022/10/17 16:31:45;;;;;;;0.20;0.20;;;;;;;20.78;51.61;100606.09;5004474;28;20069;-87
2022/10/17 16:34:12;;;;;;;0.20;0.20;;;;;;;20.78;51.28;100595.22;4976615;28;20038;-86
2022/10/17 16:36:38;;;;;;;0.60;0.30;;;;;;;20.78;51.63;100606.09;4970649;28;20434;-86
2022/10/17 16:39:04;;;;;;;0.73;0.40;;;;;;;20.77;51.76;100612.59;4973112;28;20137;-86
2022/10/17 16:41:35;;;;;;;0.32;0.30;;;;;;;20.78;51.61;100616.97;4966365;28;20489;-86
2022/10/17 16:44:02;;;;;;;0.30;0.30;;;;;;;20.75;51.67;100605.78;4966971;28;20027;-86
2022/10/17 16:46:28;;;;;;;0.32;0.30;;;;;;;20.70;51.66;100603.81;4973187;28;20022;-86
2022/10/17 16:48:54;;;;;;;0.60;0.40;;;;;;;20.76;51.85;100608.22;4951311;28;20253;-86
2022/10/17 16:51:20;;;;;;;0.65;0.35;;;;;;;20.75;51.30;100609.31;4966594;28;20034;-86
2022/10/17 16:53:48;;;;;;;0.28;0.28;;;;;;;20.75;51.24;100601.16;4970467;28;20027;-86
2022/10/17 16:56:17;;;;;;;0.40;0.40;;;;;;;20.75;51.31;100612.03;4969187;28;20019;-86
2022/10/17 16:58:42;;;;;;;0.30;0.30;;;;;;;20.75;51.53;100601.16;4958428;28;20368;-86
2022/10/17 17:01:11;;;;;;;0.68;0.40;;;;;;;20.75;51.65;100601.16;4962955;28;20037;-86
2022/10/17 17:03:40;;;;;;;1.13;0.40;;;;;;;20.74;51.37;100598.69;4967877;28;20031;-86
2022/10/17 17:06:07;;;;;;;0.80;0.40;;;;;;;20.74;51.71;100607.66;4965347;28;20081;-86
2022/10/17 17:08:33;;;;;;;0.13;0.13;;;;;;;20.68;51.31;100597.81;4966325;28;20027;-86
2022/10/17 17:10:58;;;;;;;0.70;0.40;;;;;;;20.74;51.24;100598.69;4966340;28;20145;-86
2022/10/17 17:13:25;;;;;;;0.60;0.30;;;;;;;20.74;51.36;100602.22;4968875;28;20527;-86
2022/10/17 17:15:53;;;;;;;0.30;0.30;;;;;;;20.72;51.24;100607.09;4989463;28;20120;-86
2022/10/17 17:18:22;;;;;;;0.50;0.30;;;;;;;20.72;51.42;100607.09;4966382;28;20125;-86
2022/10/17 17:20:47;;;;;;;1.90;0.40;;;;;;;20.71;51.17;100608.13;4975737;28;20487;-86
2022/10/17 17:23:14;;;;;;;0.73;0.50;;;;;;;20.71;51.21;100605.44;4964417;28;20122;-86
2022/10/17 17:25:41;;;;;;;0.93;0.43;;;;;;;20.63;51.45;100598.53;4949603;28;20023;-87
2022/10/17 17:28:07;;;;;;;0.30;0.30;;;;;;;20.57;51.21;100598.69;4945553;28;20129;-87
2022/10/17 17:30:33;;;;;;;0.60;0.30;;;;;;;20.59;51.43;100601.97;4958169;28;20041;-87
2022/10/17 17:32:59;;;;;;;0.98;0.43;;;;;;;20.61;51.21;100611.53;4948596;28;20027;-87
2022/10/17 17:35:26;;;;;;;0.65;0.40;;;;;;;20.69;51.27;100623.88;4955366;28;20023;-87
2022/10/17 17:37:52;;;;;;;0.93;0.40;;;;;;;20.65;51.42;100622.72;4983897;28;20065;-86
2022/10/17 17:40:17;;;;;;;1.77;0.40;;;;;;;20.69;51.31;100626.59;4975926;28;20069;-86
2022/10/17 17:42:43;;;;;;;0.50;0.30;;;;;;;20.69;51.18;100623.88;4972740;28;20133;-86
2022/10/17 17:45:09;;;;;;;0.85;0.30;;;;;;;20.53;50.91;100611.13;4971444;28;20373;-86
2022/10/17 17:47:35;;;;;;;0.63;0.30;;;;;;;20.59;51.11;100618.25;4961409;28;20509;-86
2022/10/17 17:50:02;;;;;;;0.30;0.30;;;;;;;20.69;51.24;100626.59;4958534;28;20054;-86
2022/10/17 17:52:28;;;;;;;0.28;0.28;;;;;;;20.68;51.51;100626.84;4967739;28;20487;-86
2022/10/17 17:54:57;;;;;;;0.90;0.40;;;;;;;20.41;50.81;100593.03;4955766;28;20046;-87
2022/10/17 17:57:22;;;;;;;0.63;0.32;;;;;;;20.62;51.26;100625.94;4979529;28;20032;-87
2022/10/17 17:59:48;;;;;;;0.50;0.30;;;;;;;20.51;51.07;100608.66;4975512;28;20387;-86
2022/10/17 18:02:14;;;;;;;0.88;0.35;;;;;;;20.62;51.26;100634.09;4978230;28;20480;-86
2022/10/17 18:04:40;;;;;;;0.77;0.40;;;;;;;20.67;51.19;100639.59;4955790;28;20069;-86
2022/10/17 18:07:05;;;;;;;1.60;0.40;;;;;;;20.65;51.12;100632.78;4973972;28;20113;-86
2022/10/17 18:09:31;;;;;;;0.70;0.35;;;;;;;20.57;51.21;100620.41;4986322;28;20166;-86
2022/10/17 18:11:57;;;;;;;0.93;0.30;;;;;;;20.65;51.04;100632.78;4974327;28;20084;-86
2022/10/17 18:14:22;;;;;;;0.57;0.50;;;;;;;20.56;50.95;100627.72;4954360;28;20450;-87
2022/10/17 18:16:48;;;;;;;0.32;0.30;;;;;;;20.55;50.85;100634.22;4934796;28;20049;-86
2022/10/17 18:19:14;;;;;;;0.70;0.30;;;;;;;20.58;50.95;100638.34;4969197;28;20064;-86
2022/10/17 18:21:40;;;;;;;0.22;0.22;;;;;;;20.49;51.21;100626.25;4971720;28;20065;-86
2022/10/17 18:24:06;;;;;;;0.65;0.40;;;;;;;20.55;51.01;100626.06;4964567;28;20027;-86
2022/10/17 18:26:32;;;;;;;0.93;0.50;;;;;;;20.51;50.93;100615.97;4940450;28;20015;-86
2022/10/17 18:28:57;;;;;;;0.50;0.40;;;;;;;20.26;50.91;100580.06;4967567;28;20077;-86
2022/10/17 18:31:27;;;;;;;0.75;0.40;;;;;;;20.59;51.10;100623.69;4973506;28;20031;-86
2022/10/17 18:33:54;;;;;;;1.00;0.40;;;;;;;20.40;50.57;100599.53;4981904;28;20042;-86
2022/10/17 18:36:24;;;;;;;0.73;0.50;;;;;;;20.40;50.93;100599.53;4973733;28;20026;-86
2022/10/17 18:38:50;;;;;;;0.45;0.30;;;;;;;20.49;50.88;100609.97;4956125;28;20053;-86
2022/10/17 18:41:18;;;;;;;0.75;0.30;;;;;;;20.26;50.89;100573.78;4966866;28;20043;-86
2022/10/17 18:43:45;;;;;;;0.40;0.32;;;;;;;20.56;50.91;100619.59;4972900;28;20022;-86
2022/10/17 18:46:12;;;;;;;0.75;0.40;;;;;;;20.60;50.83;100625.34;4957748;28;20081;-86
2022/10/17 18:48:39;;;;;;;0.73;0.45;;;;;;;20.59;50.73;100627.25;4971654;28;20038;-86
2022/10/17 18:51:05;;;;;;;0.35;0.30;;;;;;;20.58;51.03;100627.50;4976450;28;20054;-86
2022/10/17 18:53:30;;;;;;;0.40;0.40;;;;;;;20.58;50.63;100627.50;4973421;28;20075;-86
2022/10/17 18:55:56;;;;;;;1.25;0.45;;;;;;;20.54;50.43;100621.72;4974133;28;20114;-86
2022/10/17 18:58:22;;;;;;;0.50;0.30;;;;;;;20.57;50.66;100626.66;4969205;28;20030;-86
2022/10/17 19:00:49;;;;;;;1.08;0.50;;;;;;;20.51;50.56;100630.38;4965903;28;20113;-87
2022/10/17 19:03:14;;;;;;;0.70;0.43;;;;;;;20.56;50.83;100635.88;4955483;28;20023;-86
2022/10/17 19:05:40;;;;;;;1.08;0.47;;;;;;;20.51;50.74;100626.84;4959043;28;20078;-86
2022/10/17 19:08:06;;;;;;;0.60;0.38;;;;;;;20.39;50.21;100603.31;4952752;28;20113;-87
2022/10/17 19:10:32;;;;;;;0.30;0.30;;;;;;;20.55;50.50;100633.41;4962041;28;20307;-87
2022/10/17 19:12:58;;;;;;;1.02;0.40;;;;;;;20.55;50.85;100630.69;4942858;28;20074;-87
2022/10/17 19:15:24;;;;;;;0.65;0.32;;;;;;;20.55;50.30;100633.41;4985048;28;20113;-87
2022/10/17 19:17:49;;;;;;;0.98;0.35;;;;;;;20.53;50.20;100625.50;4956304;28;20065;-87
2022/10/17 19:20:15;;;;;;;0.77;0.43;;;;;;;20.54;50.49;100619.03;4973362;28;20092;-87
2022/10/17 19:22:40;;;;;;;1.67;0.40;;;;;;;20.54;50.64;100618.19;4955778;28;20494;-87
2022/10/17 19:25:06;;;;;;;0.43;0.40;;;;;;;20.49;50.53;100607.25;4968671;28;20035;-87
2022/10/17 19:27:32;;;;;;;0.65;0.40;;;;;;;20.42;50.65;100596.53;4977625;28;20030;-87
2022/10/17 19:29:59;;;;;;;0.20;0.20;;;;;;;20.36;50.60;100587.50;4975025;28;20871;-87
2022/10/17 19:32:25;;;;;;;0.45;0.30;;;;;;;20.23;50.38;100566.97;4959735;28;20120;-87
2022/10/17 19:34:50;;;;;;;1.00;0.32;;;;;;;20.16;50.55;100555.47;4976371;28;20121;-87
2022/10/17 19:37:16;;;;;;;0.30;0.30;;;;;;;20.37;50.60;100589.16;4932409;28;20389;-86
2022/10/17 19:39:41;;;;;;;0.75;0.30;;;;;;;20.50;50.60;100609.72;4977134;28;20186;-87
2022/10/17 19:42:10;;;;;;;0.77;0.47;;;;;;;20.51;50.48;100610.56;4973408;28;20631;-87
2022/10/17 19:44:36;;;;;;;1.60;0.40;;;;;;;20.32;50.62;100588.28;4980782;28;20267;-87
2022/10/17 19:47:01;;;;;;;0.57;0.30;;;;;;;20.24;50.69;100579.44;4938591;28;20062;-87
2022/10/17 19:49:27;;;;;;;1.27;0.35;;;;;;;20.49;50.69;100618.09;4969582;28;20058;-87
2022/10/17 19:51:53;;;;;;;0.45;0.40;;;;;;;20.49;50.51;100612.66;4971716;28;20487;-87
2022/10/17 19:54:19;;;;;;;1.08;0.35;;;;;;;20.48;50.73;100616.47;4951360;28;20166;-87
2022/10/17 19:56:45;;;;;;;0.50;0.30;;;;;;;20.48;50.47;100602.91;4972885;28;20033;-87
2022/10/17 19:59:12;;;;;;;0.30;0.30;;;;;;;20.47;50.47;100603.97;4969024;28;20454;-87
2022/10/17 20:01:38;;;;;;;0.30;0.30;;;;;;;20.44;50.20;100597.16;4957354;28;20030;-86
2022/10/17 20:04:04;;;;;;;0.30;0.30;;;;;;;20.39;50.42;100592.44;4969738;28;20387;-87
2022/10/17 20:06:30;;;;;;;0.30;0.30;;;;;;;20.45;50.34;100594.19;4966880;28;20038;-87
2022/10/17 20:08:56;;;;;;;0.52;0.30;;;;;;;20.41;50.52;100587.59;4978767;28;20042;-86
2022/10/17 20:11:23;;;;;;;1.13;0.50;;;;;;;20.34;50.43;100564.41;4972247;28;20831;-87
2022/10/17 20:13:49;;;;;;;0.47;0.40;;;;;;;20.31;50.45;100557.56;4957376;28;20031;-87
2022/10/17 20:16:19;;;;;;;2.40;0.30;;;;;;;20.32;50.15;100566.56;4971611;28;20027;-87
2022/10/17 20:18:44;;;;;;;0.30;0.30;;;;;;;20.44;50.41;100575.44;4953383;28;20496;-86
2022/10/17 20:21:12;;;;;;;0.65;0.30;;;;;;;20.38;50.32;100569.09;4980332;28;20054;-87
2022/10/17 20:23:41;;;;;;;1.10;0.40;;;;;;;20.35;50.35;100563.34;4924095;28;20037;-87
2022/10/17 20:26:10;;;;;;;0.40;0.32;;;;;;;20.39;50.15;100564.50;4936146;28;20037;-87
2022/10/17 20:28:36;;;;;;;1.15;0.40;;;;;;;20.32;50.32;100564.66;4984703;28;20030;-86
2022/10/17 20:31:01;;;;;;;0.45;0.40;;;;;;;20.42;50.14;100566.69;4954661;28;20545;-86
2022/10/17 20:33:27;;;;;;;0.70;0.32;;;;;;;20.31;50.61;100562.19;4964972;28;20033;-86
2022/10/17 20:35:53;;;;;;;0.70;0.40;;;;;;;20.40;50.06;100557.97;4973936;28;20089;-87
2022/10/17 20:38:21;;;;;;;0.30;0.30;;;;;;;20.39;50.09;100559.88;4969394;28;20093;-86
2022/10/17 20:40:54;;;;;;;1.02;0.30;;;;;;;20.21;49.93;100536.56;4950804;28;20054;-86
2022/10/17 20:43:20;;;;;;;0.65;0.30;;;;;;;20.29;50.38;100548.06;4956179;28;20026;-87
2022/10/17 20:45:48;;;;;;;0.30;0.30;;;;;;;20.24;50.32;100527.91;4944468;28;20563;-86
2022/10/17 20:48:14;;;;;;;0.85;0.40;;;;;;;20.38;50.35;100543.84;4932181;28;20271;-87
2022/10/17 20:50:42;;;;;;;0.47;0.30;;;;;;;20.33;50.40;100533.72;4975747;28;20041;-86
2022/10/17 20:53:08;;;;;;;0.50;0.35;;;;;;;20.37;50.53;100545.75;4978136;28;20491;-86
2022/10/17 20:55:34;;;;;;;0.40;0.30;;;;;;;20.20;50.42;100515.91;4974166;28;20030;-86
2022/10/17 20:58:03;;;;;;;0.90;0.40;;;;;;;20.03;50.04;100480.66;4971853;28;20165;-87
2022/10/17 21:00:41;;;;;;;;;;;;;;;;;;;;;
2022/10/17 21:03:07;;;;;;;0.50;0.40;;;;;;;20.23;50.20;100503.72;4966475;28;20039;-86
2022/10/17 21:05:39;;;;;;;0.52;0.40;;;;;;;20.34;50.08;100519.09;4968151;28;20025;-86
2022/10/17 21:08:05;;;;;;;1.73;0.55;;;;;;;20.33;50.17;100517.44;4968080;28;20362;-86
2022/10/17 21:10:31;;;;;;;0.30;0.30;;;;;;;20.31;50.24;100510.63;4963643;28;20034;-87
2022/10/17 21:12:56;;;;;;;0.50;0.30;;;;;;;20.32;50.02;100509.56;4957086;28;20510;-87
2022/10/17 21:15:25;;;;;;;0.55;0.40;;;;;;;20.28;50.07;100503.78;4971348;28;20034;-87
2022/10/17 21:17:53;;;;;;;0.70;0.40;;;;;;;20.10;50.27;100464.19;4947463;28;20244;-87
2022/10/17 21:20:19;;;;;;;1.13;0.40;;;;;;;20.25;50.23;100488.03;4955071;28;20027;-87
2022/10/17 21:22:45;;;;;;;0.32;0.32;;;;;;;20.25;50.17;100493.47;4942815;28;20034;-87
2022/10/17 21:25:10;;;;;;;1.98;0.40;;;;;;;20.08;50.22;100472.59;4961036;28;20048;-87
2022/10/17 21:27:39;;;;;;;0.30;0.30;;;;;;;20.31;50.21;100497.06;4976144;28;20026;-87
2022/10/17 21:30:05;;;;;;;0.35;0.30;;;;;;;20.30;50.14;100496.25;4970323;28;20035;-87
2022/10/17 21:32:31;;;;;;;0.30;0.30;;;;;;;20.31;50.29;100486.19;4981301;28;20029;-87
2022/10/17 21:34:56;;;;;;;0.88;0.38;;;;;;;20.29;49.92;100483.75;4976311;28;20440;-87
2022/10/17 21:37:22;;;;;;;0.40;0.40;;;;;;;20.29;50.15;100489.16;4968871;28;20027;-87
2022/10/17 21:39:47;;;;;;;0.43;0.30;;;;;;;20.30;49.96;100482.69;4985323;28;20022;-87
2022/10/17 21:42:13;;;;;;;0.43;0.30;;;;;;;20.29;49.86;100494.59;4974319;28;20045;-87
2022/10/17 21:44:39;;;;;;;0.93;0.60;;;;;;;20.24;50.04;100500.75;4972451;28;20030;-87
2022/10/17 21:47:04;;;;;;;1.17;0.40;;;;;;;20.23;49.92;100484.72;4974888;28;20342;-86
2022/10/17 21:49:30;;;;;;;0.30;0.30;;;;;;;20.26;50.02;100487.78;4954551;28;20023;-86
2022/10/17 21:51:56;;;;;;;0.80;0.30;;;;;;;20.17;50.37;100480.31;4981130;28;20428;-86
2022/10/17 21:54:25;;;;;;;0.50;0.30;;;;;;;20.25;49.92;100494.28;4956052;28;20055;-86
2022/10/17 21:56:50;;;;;;;0.77;0.20;;;;;;;20.26;50.21;100489.66;4949648;28;20050;-86
2022/10/17 21:59:17;;;;;;;0.60;0.30;;;;;;;20.06;50.29;100463.88;4926090;28;20122;-87
2022/10/17 22:01:44;;;;;;;0.30;0.30;;;;;;;20.26;50.21;100500.50;4958596;28;20062;-86
2022/10/17 22:04:14;;;;;;;0.30;0.30;;;;;;;20.12;50.27;100467.47;4982976;28;20168;-86
2022/10/17 22:06:40;;;;;;;0.40;0.30;;;;;;;20.25;49.87;100493.47;4966786;28;20089;-86
2022/10/17 22:09:09;;;;;;;0.30;0.30;;;;;;;20.24;50.10;100489.91;4969053;28;20035;-87
2022/10/17 22:11:34;;;;;;;0.32;0.32;;;;;;;20.21;49.76;100495.00;4978156;28;20443;-86
2022/10/17 22:14:05;;;;;;;1.23;0.38;;;;;;;20.25;49.76;100482.59;4962956;28;20026;-86
2022/10/17 22:16:30;;;;;;;0.40;0.38;;;;;;;20.10;50.19;100458.78;4972246;28;20118;-87
2022/10/17 22:18:57;;;;;;;0.68;0.30;;;;;;;20.10;50.26;100447.94;4968282;28;20042;-87
2022/10/17 22:21:23;;;;;;;0.95;0.50;;;;;;;20.25;50.08;100479.88;4985098;28;20450;-87
2022/10/17 22:23:57;;;;;;;0.50;0.30;;;;;;;20.19;49.63;100468.13;4952830;28;20185;-87
2022/10/17 22:26:25;;;;;;;0.30;0.30;;;;;;;19.95;49.95;100429.53;4971790;28;20102;-86
2022/10/17 22:28:51;;;;;;;0.40;0.40;;;;;;;19.94;49.81;100424.34;4977000;28;20031;-86
2022/10/17 22:31:16;;;;;;;0.45;0.40;;;;;;;20.22;50.25;100455.97;4969042;28;20176;-86
2022/10/17 22:33:42;;;;;;;0.50;0.32;;;;;;;20.23;50.18;100463.00;4973618;28;20031;-87
2022/10/17 22:36:07;;;;;;;0.38;0.38;;;;;;;20.19;50.04;100454.56;4965133;28;20337;-87
2022/10/17 22:38:34;;;;;;;0.75;0.40;;;;;;;20.23;50.14;100463.00;4967298;28;20035;-87
2022/10/17 22:40:59;;;;;;;0.80;0.40;;;;;;;20.13;49.81;100439.28;4989363;28;20373;-86
2022/10/17 22:43:25;;;;;;;0.30;0.30;;;;;;;20.21;49.99;100440.75;4977446;28;20121;-86
2022/10/17 22:45:55;;;;;;;0.60;0.50;;;;;;;20.21;50.03;100446.16;4971323;28;20035;-86
2022/10/17 22:48:21;;;;;;;0.30;0.30;;;;;;;20.21;50.10;100440.75;4971048;28;20118;-86
2022/10/17 22:50:47;;;;;;;0.40;0.38;;;;;;;20.18;50.04;100433.09;4974313;28;20311;-86
2022/10/17 22:53:15;;;;;;;1.80;0.43;;;;;;;20.17;49.93;100435.00;4971050;28;20066;-86
2022/10/17 22:55:41;;;;;;;0.98;0.45;;;;;;;20.19;49.86;100432.03;4948959;28;20027;-86
2022/10/17 22:58:07;;;;;;;0.40;0.30;;;;;;;20.19;50.13;100427.41;4986077;28;20062;-86
2022/10/17 23:00:32;;;;;;;0.32;0.30;;;;;;;20.18;50.28;100423.09;4965378;28;20053;-87
2022/10/17 23:02:58;;;;;;;0.40;0.40;;;;;;;20.17;50.00;100413.28;4970336;28;20038;-86
2022/10/17 23:05:23;;;;;;;0.73;0.55;;;;;;;20.18;50.10;100416.81;4980165;28;20406;-86
2022/10/17 23:07:49;;;;;;;1.52;0.47;;;;;;;20.15;50.29;100415.44;4969619;28;20455;-86
2022/10/17 23:10:14;;;;;;;0.98;0.50;;;;;;;20.16;49.85;100402.69;4967950;28;20109;-86
2022/10/17 23:12:40;;;;;;;0.30;0.30;;;;;;;20.16;50.09;100403.53;4972949;28;20034;-86
2022/10/17 23:15:06;;;;;;;0.30;0.30;;;;;;;20.17;50.30;100398.91;4976250;28;20494;-87
2022/10/17 23:17:32;;;;;;;0.88;0.30;;;;;;;20.16;50.37;100391.81;4969024;28;20046;-86
2022/10/17 23:19:57;;;;;;;0.32;0.22;;;;;;;20.15;50.07;100373.94;4949772;28;20573;-86
2022/10/17 23:22:23;;;;;;;0.70;0.40;;;;;;;20.16;49.99;100370.97;4979555;28;20030;-86
2022/10/17 23:24:49;;;;;;;0.82;0.40;;;;;;;20.14;50.16;100364.13;4966299;28;20015;-86
2022/10/17 23:27:14;;;;;;;1.85;0.40;;;;;;;20.05;50.03;100351.00;4979600;28;20033;-86
2022/10/17 23:29:40;;;;;;;0.50;0.30;;;;;;;20.13;50.29;100359.78;4960570;28;20535;-86
2022/10/17 23:32:05;;;;;;;0.73;0.43;;;;;;;20.16;50.27;100359.28;4968335;28;20035;-86
2022/10/17 23:34:31;;;;;;;1.02;0.50;;;;;;;20.13;50.16;100354.34;4974447;28;20608;-86
2022/10/17 23:36:57;;;;;;;1.00;0.50;;;;;;;20.13;50.09;100355.19;4959075;28;20029;-86
2022/10/17 23:39:23;;;;;;;0.40;0.40;;;;;;;20.10;50.07;100344.03;4975489;28;20221;-86
2022/10/17 23:41:48;;;;;;;1.10;0.40;;;;;;;20.14;50.32;100339.72;4969575;28;20035;-86
2022/10/17 23:44:14;;;;;;;0.55;0.47;;;;;;;20.14;49.98;100345.16;4966758;28;20112;-86
2022/10/17 23:46:39;;;;;;;0.38;0.38;;;;;;;20.12;49.93;100341.88;4967681;28;20061;-86
2022/10/17 23:49:05;;;;;;;0.63;0.43;;;;;;;20.13;50.09;100338.91;4971798;28;20030;-86
2022/10/17 23:51:31;;;;;;;1.85;0.55;;;;;;;20.11;50.04;100332.91;4973963;28;20030;-86
2022/10/17 23:53:57;;;;;;;0.30;0.30;;;;;;;20.10;49.89;100319.59;4986132;28;20038;-87
2022/10/17 23:56:44;;;;;;;0.30;0.30;;;;;;;19.89;49.89;100290.31;4966432;28;20117;-86
2022/10/17 23:59:10;;;;;;;0.50;0.30;;;;;;;19.96;49.80;100303.69;4960622;28;20391;-86
